createdAt,value
2018-12-29T00:01:52.171Z,2.60
2018-12-29T00:04:20.665Z,2.60
2018-12-29T00:06:49.343Z,2.60
2018-12-29T00:09:17.845Z,2.60
2018-12-29T00:11:46.345Z,2.70
2018-12-29T00:14:14.841Z,2.70
2018-12-29T00:16:43.320Z,2.60
2018-12-29T00:19:11.921Z,2.60
2018-12-29T00:21:40.493Z,2.60
2018-12-29T00:24:08.969Z,2.60
2018-12-29T00:26:37.425Z,2.70
2018-12-29T00:29:05.890Z,2.70
2018-12-29T00:31:34.389Z,2.70
2018-12-29T00:34:02.855Z,2.70
2018-12-29T00:36:31.396Z,2.60
2018-12-29T00:38:59.896Z,2.60
2018-12-29T00:41:28.376Z,2.60
2018-12-29T00:43:56.877Z,2.60
2018-12-29T00:46:25.359Z,2.60
2018-12-29T00:48:53.845Z,2.60
2018-12-29T00:51:22.344Z,2.60
2018-12-29T00:53:50.825Z,2.60
2018-12-29T00:56:19.381Z,2.70
2018-12-29T00:58:47.876Z,2.70
2018-12-29T01:01:16.378Z,2.70
2018-12-29T01:03:44.864Z,2.70
2018-12-29T01:06:13.392Z,2.80
2018-12-29T01:08:41.873Z,2.70
2018-12-29T01:11:10.320Z,2.80
2018-12-29T01:13:38.806Z,2.80
2018-12-29T01:16:07.273Z,2.70
2018-12-29T01:18:35.755Z,2.70
2018-12-29T01:21:04.220Z,2.70
2018-12-29T01:23:32.704Z,2.70
2018-12-29T01:26:01.196Z,2.70
2018-12-29T01:28:29.678Z,2.70
2018-12-29T01:30:58.172Z,2.60
2018-12-29T01:33:26.655Z,2.60
2018-12-29T01:35:55.158Z,2.60
2018-12-29T01:38:23.652Z,2.60
2018-12-29T01:40:52.153Z,2.70
2018-12-29T01:43:20.716Z,2.70
2018-12-29T01:45:49.193Z,2.60
2018-12-29T01:48:17.677Z,2.60
2018-12-29T01:50:46.157Z,2.60
2018-12-29T01:53:14.737Z,2.60
2018-12-29T01:55:43.240Z,2.60
2018-12-29T01:58:11.881Z,2.50
2018-12-29T02:00:40.377Z,2.50
2018-12-29T02:03:08.878Z,2.60
2018-12-29T02:05:37.384Z,2.50
2018-12-29T02:08:05.990Z,2.50
2018-12-29T02:10:34.493Z,2.50
2018-12-29T02:13:02.991Z,2.50
2018-12-29T02:15:31.476Z,2.50
2018-12-29T02:17:59.964Z,2.50
2018-12-29T02:20:28.617Z,2.50
2018-12-29T02:22:57.078Z,2.50
2018-12-29T02:25:25.576Z,2.50
2018-12-29T02:27:54.039Z,2.60
2018-12-29T02:30:22.507Z,2.60
2018-12-29T02:32:51.023Z,2.60
2018-12-29T02:35:19.498Z,2.70
2018-12-29T02:37:48.065Z,2.70
2018-12-29T02:40:16.632Z,2.70
2018-12-29T02:42:45.113Z,2.70
2018-12-29T02:45:13.585Z,2.60
2018-12-29T02:47:45.280Z,2.70
2018-12-29T02:50:13.769Z,2.70
2018-12-29T02:52:42.241Z,2.70
2018-12-29T02:55:10.753Z,2.70
2018-12-29T02:57:39.430Z,2.70
2018-12-29T03:00:07.976Z,2.70
2018-12-29T03:02:36.437Z,2.60
2018-12-29T03:05:05.088Z,2.50
2018-12-29T03:07:33.569Z,2.50
2018-12-29T03:10:02.058Z,2.40
2018-12-29T03:12:30.558Z,2.50
2018-12-29T03:14:59.024Z,2.40
2018-12-29T03:17:27.501Z,2.40
2018-12-29T03:19:55.989Z,2.40
2018-12-29T03:22:24.461Z,2.50
2018-12-29T03:24:52.942Z,2.50
2018-12-29T03:27:21.497Z,2.50
2018-12-29T03:29:49.969Z,2.40
2018-12-29T03:32:18.542Z,2.40
2018-12-29T03:34:47.033Z,2.50
2018-12-29T03:37:15.659Z,2.50
2018-12-29T03:39:44.122Z,2.50
2018-12-29T03:42:12.625Z,2.60
2018-12-29T03:44:41.093Z,2.60
2018-12-29T03:47:14.664Z,2.60
2018-12-29T03:49:43.173Z,2.60
2018-12-29T03:52:11.717Z,2.60
2018-12-29T03:54:40.225Z,2.60
2018-12-29T03:57:08.696Z,2.60
2018-12-29T03:59:37.180Z,2.60
2018-12-29T04:02:06.142Z,2.60
2018-12-29T04:04:34.626Z,2.50
2018-12-29T04:07:03.104Z,2.50
2018-12-29T04:09:32.942Z,2.40
2018-12-29T04:12:04.529Z,2.40
2018-12-29T04:14:34.225Z,2.40
2018-12-29T04:17:02.873Z,2.40
2018-12-29T04:19:31.329Z,2.40
2018-12-29T04:21:59.797Z,2.40
2018-12-29T04:24:28.283Z,2.40
2018-12-29T04:26:56.996Z,2.40
2018-12-29T04:29:25.453Z,2.40
2018-12-29T04:31:53.981Z,2.40
2018-12-29T04:34:22.492Z,2.40
2018-12-29T04:36:51.084Z,2.40
2018-12-29T04:39:19.553Z,2.50
2018-12-29T04:41:48.036Z,2.40
2018-12-29T04:44:16.574Z,2.40
2018-12-29T04:46:45.037Z,2.30
2018-12-29T04:49:13.521Z,2.30
2018-12-29T04:51:42.029Z,2.30
2018-12-29T04:54:10.528Z,2.30
2018-12-29T04:56:39.001Z,2.30
2018-12-29T04:59:07.468Z,2.30
2018-12-29T05:01:36.064Z,2.30
2018-12-29T05:04:04.536Z,2.30
2018-12-29T05:06:33.158Z,2.20
2018-12-29T05:09:01.671Z,2.20
2018-12-29T05:11:30.148Z,2.10
2018-12-29T05:13:58.641Z,2.00
2018-12-29T05:16:27.148Z,1.90
2018-12-29T05:18:55.612Z,1.90
2018-12-29T05:21:24.085Z,1.90
2018-12-29T05:23:52.585Z,1.90
2018-12-29T05:26:21.073Z,1.80
2018-12-29T05:28:49.523Z,1.70
2018-12-29T05:31:18.030Z,1.70
2018-12-29T05:33:46.560Z,1.60
2018-12-29T05:36:15.060Z,1.60
2018-12-29T05:38:43.541Z,1.50
2018-12-29T05:41:12.023Z,1.50
2018-12-29T05:43:40.516Z,1.40
2018-12-29T05:46:09.005Z,1.60
2018-12-29T05:48:37.509Z,1.60
2018-12-29T05:51:06.014Z,1.50
2018-12-29T05:53:34.465Z,1.50
2018-12-29T05:56:02.949Z,1.60
2018-12-29T05:58:31.589Z,1.60
2018-12-29T06:01:00.069Z,1.50
2018-12-29T06:03:28.548Z,1.40
2018-12-29T06:05:57.046Z,1.40
2018-12-29T06:08:25.684Z,1.30
2018-12-29T06:10:54.152Z,1.30
2018-12-29T06:13:22.617Z,1.20
2018-12-29T06:15:51.081Z,1.20
2018-12-29T06:18:19.719Z,1.30
2018-12-29T06:20:48.176Z,1.30
2018-12-29T06:23:16.653Z,1.30
2018-12-29T06:25:45.144Z,1.20
2018-12-29T06:28:13.633Z,1.20
2018-12-29T06:30:42.121Z,1.10
2018-12-29T06:33:10.617Z,1.10
2018-12-29T06:35:39.120Z,1.10
2018-12-29T06:38:07.601Z,1.10
2018-12-29T06:40:36.058Z,1.10
2018-12-29T06:43:04.625Z,1.20
2018-12-29T06:45:33.084Z,1.10
2018-12-29T06:48:01.571Z,1.10
2018-12-29T06:50:30.040Z,1.20
2018-12-29T06:52:59.541Z,1.20
2018-12-29T06:55:28.013Z,1.30
2018-12-29T06:57:56.656Z,1.30
2018-12-29T07:00:25.118Z,1.40
2018-12-29T07:02:53.586Z,1.40
2018-12-29T07:05:22.092Z,1.40
2018-12-29T07:07:50.776Z,1.40
2018-12-29T07:10:19.349Z,1.40
2018-12-29T07:12:47.826Z,1.40
2018-12-29T07:15:16.323Z,1.50
2018-12-29T07:17:49.788Z,1.50
2018-12-29T07:20:18.320Z,1.50
2018-12-29T07:22:46.825Z,1.60
2018-12-29T07:25:15.314Z,1.60
2018-12-29T07:27:43.827Z,1.60
2018-12-29T07:30:12.289Z,1.50
2018-12-29T07:32:40.812Z,1.50
2018-12-29T07:35:09.309Z,1.50
2018-12-29T07:37:37.789Z,1.60
2018-12-29T07:40:06.511Z,1.60
2018-12-29T07:42:34.984Z,1.60
2018-12-29T07:45:03.460Z,1.60
2018-12-29T07:47:31.953Z,1.60
2018-12-29T07:50:00.514Z,1.60
2018-12-29T07:52:29.053Z,1.60
2018-12-29T07:54:57.557Z,1.60
2018-12-29T07:57:26.046Z,1.70
2018-12-29T07:59:54.517Z,1.70
2018-12-29T08:02:23.025Z,1.70
2018-12-29T08:04:51.475Z,1.70
2018-12-29T08:07:25.030Z,1.70
2018-12-29T08:09:53.605Z,1.70
2018-12-29T08:12:22.100Z,1.70
2018-12-29T08:14:50.581Z,1.80
2018-12-29T08:17:19.049Z,1.70
2018-12-29T08:19:47.545Z,1.80
2018-12-29T08:22:16.012Z,1.80
2018-12-29T08:24:44.502Z,1.80
2018-12-29T08:27:13.088Z,1.90
2018-12-29T08:29:41.566Z,1.90
2018-12-29T08:32:10.041Z,1.90
2018-12-29T08:34:38.545Z,2.00
2018-12-29T08:37:07.021Z,2.00
2018-12-29T08:39:35.507Z,2.00
2018-12-29T08:42:04.084Z,2.00
2018-12-29T08:44:32.568Z,2.00
2018-12-29T08:47:04.458Z,2.00
2018-12-29T08:49:31.274Z,2.00
2018-12-29T08:51:59.773Z,2.10
2018-12-29T08:54:28.261Z,2.10
2018-12-29T08:56:56.830Z,2.20
2018-12-29T08:59:25.405Z,2.20
2018-12-29T09:01:53.940Z,2.30
2018-12-29T09:04:22.435Z,2.30
2018-12-29T09:06:50.932Z,2.30
2018-12-29T09:09:19.537Z,2.30
2018-12-29T09:11:48.046Z,2.30
2018-12-29T09:14:16.679Z,2.30
2018-12-29T09:16:45.165Z,2.30
2018-12-29T09:19:13.648Z,2.30
2018-12-29T09:21:42.129Z,2.40
2018-12-29T09:24:10.609Z,2.40
2018-12-29T09:26:39.131Z,2.50
2018-12-29T09:29:07.748Z,2.50
2018-12-29T09:31:36.248Z,2.50
2018-12-29T09:34:04.748Z,2.50
2018-12-29T09:36:34.076Z,2.60
2018-12-29T09:39:03.110Z,2.60
2018-12-29T09:41:31.621Z,2.60
2018-12-29T09:44:00.109Z,2.60
2018-12-29T09:46:28.565Z,2.60
2018-12-29T09:48:57.097Z,2.60
2018-12-29T09:51:25.560Z,2.70
2018-12-29T09:53:54.052Z,2.60
2018-12-29T09:56:22.520Z,2.70
2018-12-29T09:58:50.984Z,2.70
2018-12-29T10:01:19.494Z,2.70
2018-12-29T10:03:47.944Z,2.70
2018-12-29T10:06:16.413Z,2.70
2018-12-29T10:08:44.893Z,2.60
2018-12-29T10:11:13.373Z,2.60
2018-12-29T10:13:41.862Z,2.60
2018-12-29T10:16:10.357Z,2.80
2018-12-29T10:18:38.825Z,2.80
2018-12-29T10:21:07.287Z,2.90
2018-12-29T10:23:35.848Z,3.00
2018-12-29T10:26:04.310Z,3.10
2018-12-29T10:28:32.768Z,3.20
2018-12-29T10:31:01.264Z,3.20
2018-12-29T10:33:29.739Z,3.20
2018-12-29T10:35:58.217Z,3.30
2018-12-29T10:38:26.861Z,3.30
2018-12-29T10:40:55.348Z,3.30
2018-12-29T10:43:23.834Z,3.30
2018-12-29T10:45:52.336Z,3.30
2018-12-29T10:48:20.957Z,3.40
2018-12-29T10:50:49.438Z,3.30
2018-12-29T10:53:17.937Z,3.40
2018-12-29T10:55:46.420Z,3.40
2018-12-29T10:58:24.304Z,3.30
2018-12-29T11:00:52.856Z,3.30
2018-12-29T11:03:21.326Z,3.20
2018-12-29T11:05:49.841Z,3.20
2018-12-29T11:08:18.388Z,3.20
2018-12-29T11:10:46.857Z,3.20
2018-12-29T11:13:15.353Z,3.20
2018-12-29T11:15:43.813Z,3.20
2018-12-29T11:18:12.321Z,3.10
2018-12-29T11:20:40.793Z,3.20
2018-12-29T11:23:09.257Z,3.20
2018-12-29T11:25:37.767Z,3.30
2018-12-29T11:28:06.234Z,3.30
2018-12-29T11:30:34.724Z,3.30
2018-12-29T11:33:03.213Z,3.30
2018-12-29T11:35:31.682Z,3.30
2018-12-29T11:38:00.433Z,3.30
2018-12-29T11:40:28.942Z,3.30
2018-12-29T11:42:57.428Z,3.30
2018-12-29T11:45:26.015Z,3.30
2018-12-29T11:47:54.562Z,3.30
2018-12-29T11:50:23.103Z,3.20
2018-12-29T11:52:51.646Z,3.20
2018-12-29T11:55:20.223Z,3.10
2018-12-29T11:57:48.789Z,3.10
2018-12-29T12:00:17.430Z,3.10
2018-12-29T12:02:46.006Z,3.10
2018-12-29T12:05:14.535Z,3.10
2018-12-29T12:07:43.168Z,3.10
2018-12-29T12:10:11.746Z,3.10
2018-12-29T12:12:40.293Z,3.10
2018-12-29T12:15:08.980Z,3.10
2018-12-29T12:17:37.507Z,3.10
2018-12-29T12:20:06.425Z,3.10
2018-12-29T12:22:34.968Z,3.20
2018-12-29T12:25:03.600Z,3.20
2018-12-29T12:27:32.109Z,3.20
2018-12-29T12:30:01.176Z,3.20
2018-12-29T12:32:29.721Z,3.30
2018-12-29T12:34:58.771Z,3.40
2018-12-29T12:37:27.385Z,3.50
2018-12-29T12:39:56.204Z,3.50
2018-12-29T12:42:24.697Z,3.60
2018-12-29T12:44:53.281Z,3.60
2018-12-29T12:47:21.850Z,3.60
2018-12-29T12:49:50.393Z,3.60
2018-12-29T12:52:18.967Z,3.50
2018-12-29T12:54:47.526Z,3.50
2018-12-29T12:57:16.404Z,3.50
2018-12-29T12:59:45.393Z,3.50
2018-12-29T13:02:13.932Z,3.50
2018-12-29T13:04:42.593Z,3.50
2018-12-29T13:07:11.188Z,3.60
2018-12-29T13:09:39.665Z,3.50
2018-12-29T13:12:08.232Z,3.50
2018-12-29T13:14:36.833Z,3.60
2018-12-29T13:17:05.838Z,3.60
2018-12-29T13:19:34.379Z,3.60
2018-12-29T13:22:02.961Z,3.60
2018-12-29T13:24:31.456Z,3.50
2018-12-29T13:27:00.009Z,3.50
2018-12-29T13:29:29.049Z,3.50
2018-12-29T13:31:57.612Z,3.50
2018-12-29T13:34:26.197Z,3.50
2018-12-29T13:36:55.653Z,3.60
2018-12-29T13:39:24.309Z,3.60
2018-12-29T13:41:53.080Z,3.50
2018-12-29T13:44:21.601Z,3.50
2018-12-29T13:46:50.104Z,3.50
2018-12-29T13:49:18.654Z,3.50
2018-12-29T13:51:47.204Z,3.60
2018-12-29T13:54:15.697Z,3.60
2018-12-29T13:56:44.165Z,3.60
2018-12-29T13:59:12.741Z,3.60
2018-12-29T14:01:41.201Z,3.60
2018-12-29T14:04:09.685Z,3.60
2018-12-29T14:06:38.264Z,3.60
2018-12-29T14:09:06.897Z,3.60
2018-12-29T14:11:35.440Z,3.50
2018-12-29T14:14:03.996Z,3.50
2018-12-29T14:16:32.545Z,3.40
2018-12-29T14:19:01.166Z,3.40
2018-12-29T14:21:29.802Z,3.50
2018-12-29T14:23:58.357Z,3.50
2018-12-29T14:26:27.017Z,3.40
2018-12-29T14:28:55.620Z,3.30
2018-12-29T14:31:24.091Z,3.20
2018-12-29T14:33:52.564Z,3.30
2018-12-29T14:36:21.261Z,3.20
2018-12-29T14:38:49.805Z,3.20
2018-12-29T14:41:18.285Z,3.20
2018-12-29T14:43:46.786Z,3.20
2018-12-29T14:46:15.368Z,3.20
2018-12-29T14:48:43.856Z,3.10
2018-12-29T14:51:12.357Z,3.10
2018-12-29T14:53:40.924Z,3.10
2018-12-29T14:56:09.500Z,3.10
2018-12-29T14:58:37.978Z,3.10
2018-12-29T15:01:06.549Z,3.10
2018-12-29T15:03:35.121Z,3.10
2018-12-29T15:06:03.649Z,3.10
2018-12-29T15:08:32.141Z,3.10
2018-12-29T15:11:00.701Z,3.10
2018-12-29T15:13:29.757Z,3.10
2018-12-29T15:15:58.341Z,3.20
2018-12-29T15:18:26.892Z,3.20
2018-12-29T15:20:55.736Z,3.20
2018-12-29T15:23:24.314Z,3.20
2018-12-29T15:25:52.849Z,3.20
2018-12-29T15:28:21.393Z,3.10
2018-12-29T15:30:50.578Z,3.00
2018-12-29T15:33:19.109Z,3.00
2018-12-29T15:35:47.660Z,2.90
2018-12-29T15:38:16.162Z,2.90
2018-12-29T15:40:44.739Z,2.90
2018-12-29T15:43:13.288Z,2.90
2018-12-29T15:45:41.856Z,2.90
2018-12-29T15:48:10.574Z,2.80
2018-12-29T15:50:39.142Z,2.70
2018-12-29T15:53:08.101Z,2.60
2018-12-29T15:55:36.668Z,2.60
2018-12-29T15:58:05.725Z,2.50
2018-12-29T16:00:34.288Z,2.40
2018-12-29T16:03:03.119Z,2.40
2018-12-29T16:05:32.084Z,2.40
2018-12-29T16:08:00.567Z,2.40
2018-12-29T16:10:29.128Z,2.30
2018-12-29T16:12:57.713Z,2.30
2018-12-29T16:15:26.254Z,2.30
2018-12-29T16:17:54.796Z,2.30
2018-12-29T16:20:23.349Z,2.20
2018-12-29T16:22:52.306Z,2.20
2018-12-29T16:25:20.872Z,2.20
2018-12-29T16:27:49.428Z,2.20
2018-12-29T16:30:17.988Z,2.20
2018-12-29T16:32:47.064Z,2.10
2018-12-29T16:35:15.706Z,2.10
2018-12-29T16:37:44.289Z,2.10
2018-12-29T16:40:12.833Z,2.10
2018-12-29T16:42:41.408Z,2.00
2018-12-29T16:45:10.151Z,1.90
2018-12-29T16:47:38.693Z,2.00
2018-12-29T16:50:08.629Z,2.00
2018-12-29T16:52:37.272Z,2.00
2018-12-29T16:55:06.421Z,1.80
2018-12-29T16:57:34.976Z,1.70
2018-12-29T17:00:05.171Z,1.70
2018-12-29T17:02:33.732Z,1.70
2018-12-29T17:05:02.377Z,1.70
2018-12-29T17:07:31.037Z,1.70
2018-12-29T17:09:59.606Z,1.60
2018-12-29T17:12:28.181Z,1.50
2018-12-29T17:14:57.061Z,1.40
2018-12-29T17:17:25.635Z,1.40
2018-12-29T17:19:54.204Z,1.30
2018-12-29T17:22:22.761Z,1.30
2018-12-29T17:24:51.333Z,1.40
2018-12-29T17:27:19.900Z,1.40
2018-12-29T17:29:48.932Z,1.40
2018-12-29T17:32:17.504Z,1.50
2018-12-29T17:34:46.081Z,1.50
2018-12-29T17:37:14.650Z,1.60
2018-12-29T17:39:43.329Z,1.60
2018-12-29T17:42:11.909Z,1.50
2018-12-29T17:44:40.477Z,1.40
2018-12-29T17:47:09.036Z,1.30
2018-12-29T17:49:37.691Z,1.30
2018-12-29T17:52:06.451Z,1.30
2018-12-29T17:54:35.044Z,1.30
2018-12-29T17:57:03.579Z,1.30
2018-12-29T17:59:32.128Z,1.40
2018-12-29T18:02:00.698Z,1.40
2018-12-29T18:04:29.672Z,1.40
2018-12-29T18:06:58.257Z,1.40
2018-12-29T18:09:26.832Z,1.30
2018-12-29T18:11:55.678Z,1.30
2018-12-29T18:14:24.206Z,1.30
2018-12-29T18:16:52.788Z,1.30
2018-12-29T18:19:21.332Z,1.40
2018-12-29T18:21:49.900Z,1.30
2018-12-29T18:24:18.469Z,1.30
2018-12-29T18:26:47.036Z,1.30
2018-12-29T18:29:15.584Z,1.20
2018-12-29T18:31:44.221Z,1.20
2018-12-29T18:34:12.786Z,1.10
2018-12-29T18:36:41.353Z,1.10
2018-12-29T18:39:09.913Z,1.10
2018-12-29T18:41:38.515Z,1.10
2018-12-29T18:44:07.363Z,1.10
2018-12-29T18:46:35.922Z,1.10
2018-12-29T18:49:04.480Z,1.20
2018-12-29T18:51:33.049Z,1.10
2018-12-29T18:54:01.613Z,1.20
2018-12-29T18:56:30.452Z,1.20
2018-12-29T18:58:59.016Z,1.20
2018-12-29T19:01:27.560Z,1.20
2018-12-29T19:03:56.117Z,1.20
2018-12-29T19:06:24.694Z,1.20
2018-12-29T19:08:53.237Z,1.20
2018-12-29T19:11:21.714Z,1.20
2018-12-29T19:13:50.200Z,1.20
2018-12-29T19:16:19.143Z,1.20
2018-12-29T19:18:47.776Z,1.20
2018-12-29T19:21:16.737Z,1.30
2018-12-29T19:23:46.938Z,1.30
2018-12-29T19:26:15.873Z,1.30
2018-12-29T19:28:44.650Z,1.20
2018-12-29T19:31:13.598Z,1.20
2018-12-29T19:33:42.176Z,1.10
2018-12-29T19:36:10.641Z,1.10
2018-12-29T19:38:39.292Z,1.10
2018-12-29T19:41:08.380Z,1.10
2018-12-29T19:43:37.400Z,1.10
2018-12-29T19:46:06.285Z,1.20
2018-12-29T19:48:34.854Z,1.20
2018-12-29T19:51:03.400Z,1.20
2018-12-29T19:53:32.328Z,1.10
2018-12-29T19:56:00.909Z,1.20
2018-12-29T19:58:29.459Z,1.20
2018-12-29T20:00:58.001Z,1.20
2018-12-29T20:03:26.564Z,1.20
2018-12-29T20:05:55.024Z,1.30
2018-12-29T20:08:23.528Z,1.20
2018-12-29T20:10:52.596Z,1.30
2018-12-29T20:13:21.146Z,1.30
2018-12-29T20:15:49.689Z,1.30
2018-12-29T20:18:18.264Z,1.20
2018-12-29T20:20:46.847Z,1.20
2018-12-29T20:23:15.693Z,1.10
2018-12-29T20:25:44.224Z,1.10
2018-12-29T20:28:14.617Z,1.10
2018-12-29T20:30:42.989Z,1.10
2018-12-29T20:33:11.541Z,1.00
2018-12-29T20:35:40.312Z,1.00
2018-12-29T20:38:08.784Z,1.10
2018-12-29T20:40:37.347Z,1.00
2018-12-29T20:43:05.909Z,1.00
2018-12-29T20:45:34.469Z,0.90
2018-12-29T20:48:03.088Z,0.90
2018-12-29T20:50:32.092Z,0.90
2018-12-29T20:53:00.656Z,0.90
2018-12-29T20:55:29.144Z,0.90
2018-12-29T20:57:57.882Z,0.90
2018-12-29T21:00:26.428Z,0.90
2018-12-29T21:02:55.616Z,0.90
2018-12-29T21:05:25.667Z,0.80
2018-12-29T21:07:54.620Z,0.90
2018-12-29T21:10:23.167Z,0.80
2018-12-29T21:12:51.721Z,0.80
2018-12-29T21:15:20.296Z,0.80
2018-12-29T21:17:48.860Z,0.90
2018-12-29T21:20:17.725Z,0.90
2018-12-29T21:22:46.612Z,1.00
2018-12-29T21:25:15.173Z,1.00
2018-12-29T21:27:43.729Z,1.00
2018-12-29T21:30:12.701Z,1.00
2018-12-29T21:32:41.321Z,1.00
2018-12-29T21:35:09.856Z,1.00
2018-12-29T21:37:38.387Z,1.00
2018-12-29T21:40:07.065Z,1.00
2018-12-29T21:42:35.600Z,1.10
2018-12-29T21:45:04.237Z,1.10
2018-12-29T21:47:32.796Z,1.10
2018-12-29T21:50:01.387Z,1.10
2018-12-29T21:52:29.953Z,1.20
2018-12-29T21:54:58.504Z,1.10
2018-12-29T21:57:27.550Z,1.10
2018-12-29T21:59:56.097Z,1.20
2018-12-29T22:02:24.663Z,1.20
2018-12-29T22:04:53.214Z,1.20
2018-12-29T22:07:21.773Z,1.20
2018-12-29T22:09:50.324Z,1.10
2018-12-29T22:12:18.885Z,1.10
2018-12-29T22:14:47.466Z,1.10
2018-12-29T22:17:16.010Z,1.10
2018-12-29T22:19:44.545Z,1.10
2018-12-29T22:22:13.131Z,1.20
2018-12-29T22:24:42.187Z,1.20
2018-12-29T22:27:10.743Z,1.20
2018-12-29T22:29:39.320Z,1.20
2018-12-29T22:32:07.896Z,1.20
2018-12-29T22:34:36.445Z,1.20
2018-12-29T22:37:05.043Z,1.20
2018-12-29T22:39:33.579Z,1.20
2018-12-29T22:42:02.148Z,1.20
2018-12-29T22:44:30.728Z,1.20
2018-12-29T22:46:59.281Z,1.20
2018-12-29T22:49:27.825Z,1.20
2018-12-29T22:51:56.822Z,1.20
2018-12-29T22:54:25.368Z,1.20
2018-12-29T22:56:53.840Z,1.20
2018-12-29T22:59:22.408Z,1.30
2018-12-29T23:01:50.953Z,1.30
2018-12-29T23:04:19.501Z,1.30
2018-12-29T23:06:48.065Z,1.40
2018-12-29T23:09:17.078Z,1.40
2018-12-29T23:11:45.637Z,1.40
2018-12-29T23:14:14.212Z,1.50
2018-12-29T23:16:42.820Z,1.50
2018-12-29T23:19:11.363Z,1.50
2018-12-29T23:21:39.973Z,1.50
2018-12-29T23:24:08.836Z,1.50
2018-12-29T23:26:37.396Z,1.50
2018-12-29T23:29:06.072Z,1.50
2018-12-29T23:31:34.620Z,1.60
2018-12-29T23:34:03.173Z,1.60
2018-12-29T23:36:31.741Z,1.60
2018-12-29T23:39:05.957Z,1.70
2018-12-29T23:41:34.461Z,1.70
2018-12-29T23:44:03.004Z,1.70
2018-12-29T23:46:31.536Z,1.70
2018-12-29T23:49:00.111Z,1.70
2018-12-29T23:51:28.909Z,1.70
2018-12-29T23:53:57.455Z,1.70
2018-12-29T23:56:26.655Z,1.70
2018-12-29T23:58:55.278Z,1.70
